Time;durP1;ratioP1;P1;durP2;ratioP2;P2;SDS_P1;SDS_P2;PMS_P1;PMS_P2;Temp;Humidity;BMP_temperature;BMP_pressure;BME280_temperature;BME280_humidity;BME280_pressure;Samples;Min_cycle;Max_cycle;Signal;HPM_P1;HPM_P2
2021/04/11 00:01:09;;;;;;;26.13;19.55;;;;;;;;;;6085179;29;20056;-70
2021/04/11 00:04:10;;;;;;;25.77;18.52;;;;;;;;;;6062337;29;20063;-70
2021/04/11 00:07:11;;;;;;;27.83;18.77;;;;;;;;;;6062084;29;20452;-69
2021/04/11 00:10:16;;;;;;;26.30;19.38;;;;;;;;;;6065326;29;20047;-71
2021/04/11 00:13:19;;;;;;;27.00;19.80;;;;;;;;;;6064345;29;20127;-70
2021/04/11 00:16:21;;;;;;;30.87;20.50;;;;;;;;;;6060188;29;20119;-69
2021/04/11 00:19:22;;;;;;;26.20;20.25;;;;;;;;;;6059538;29;20159;-70
2021/04/11 00:22:23;;;;;;;25.27;21.48;;;;;;;;;;6059348;29;20127;-69
2021/04/11 00:25:27;;;;;;;28.90;22.33;;;;;;;;;;6061758;29;20378;-69
2021/04/11 00:28:28;;;;;;;;;;;;;;;;;;6059719;29;20045;-69
2021/04/11 00:31:29;;;;;;;32.63;23.67;;;;;;;;;;6064829;29;19931;-69
2021/04/11 00:34:30;;;;;;;29.92;23.85;;;;;;;;;;6069948;29;20173;-69
2021/04/11 00:37:31;;;;;;;32.25;25.38;;;;;;;;;;6065896;29;20083;-69
2021/04/11 00:40:36;;;;;;;29.63;23.77;;;;;;;;;;6066454;29;20132;-69
2021/04/11 00:43:38;;;;;;;33.85;23.65;;;;;;;;;;6060123;29;20157;-69
2021/04/11 00:46:43;;;;;;;31.48;23.10;;;;;;;;;;6061495;29;20052;-69
2021/04/11 00:49:46;;;;;;;32.00;23.75;;;;;;;;;;6063473;29;20044;-71
2021/04/11 00:52:48;;;;;;;28.08;22.30;;;;;;;;;;6064893;29;20489;-70
2021/04/11 00:55:50;;;;;;;31.05;23.40;;;;;;;;;;6055605;29;20120;-72
2021/04/11 00:58:52;;;;;;;29.65;23.83;;;;;;;;;;6065263;29;20051;-69
2021/04/11 01:01:53;;;;;;;31.20;23.52;;;;;;;;;;6069742;29;20127;-70
2021/04/11 01:04:54;;;;;;;28.55;23.13;;;;;;;;;;6338759;23;20160;-70
2021/04/11 01:07:56;;;;;;;27.13;22.17;;;;;;;;;;6064229;29;20153;-70
2021/04/11 01:11:01;;;;;;;29.83;22.98;;;;;;;;;;6063226;29;20092;-71
2021/04/11 01:14:05;;;;;;;28.20;21.95;;;;;;;;;;6060014;29;20128;-71
2021/04/11 01:17:07;;;;;;;27.35;20.50;;;;;;;;;;6070632;29;20053;-71
2021/04/11 01:20:10;;;;;;;28.10;20.85;;;;;;;;;;6066856;29;20048;-71
2021/04/11 01:23:29;;;;;;;27.77;22.25;;;;;;;;;;6073734;29;20078;-71
2021/04/11 01:26:32;;;;;;;24.98;20.60;;;;;;;;;;6067866;29;20519;-71
2021/04/11 01:29:34;;;;;;;24.20;20.33;;;;;;;;;;6074071;29;20048;-71
2021/04/11 01:32:35;;;;;;;26.60;21.98;;;;;;;;;;6075442;29;20128;-69
2021/04/11 01:35:36;;;;;;;29.25;21.98;;;;;;;;;;6069180;29;20188;-71
2021/04/11 01:38:38;;;;;;;28.75;21.35;;;;;;;;;;6068059;29;20123;-70
2021/04/11 01:41:42;;;;;;;26.92;21.35;;;;;;;;;;6076921;29;20140;-69
2021/04/11 01:44:45;;;;;;;25.10;20.88;;;;;;;;;;6075841;29;20131;-70
2021/04/11 01:47:47;;;;;;;24.88;21.33;;;;;;;;;;6075257;29;20139;-71
2021/04/11 01:50:48;;;;;;;26.52;20.83;;;;;;;;;;6071296;29;20815;-70
2021/04/11 01:53:50;;;;;;;25.27;20.80;;;;;;;;;;6075529;29;20092;-72
2021/04/11 01:56:52;;;;;;;24.33;19.65;;;;;;;;;;6070449;29;20072;-70
2021/04/11 01:59:59;;;;;;;23.55;19.92;;;;;;;;;;6071624;29;20723;-73
2021/04/11 02:03:03;;;;;;;24.63;20.05;;;;;;;;;;6072701;29;20147;-70
2021/04/11 02:06:06;;;;;;;24.60;20.17;;;;;;;;;;6070628;29;20076;-70
2021/04/11 02:09:12;;;;;;;24.25;19.08;;;;;;;;;;6066227;29;20055;-70
2021/04/11 02:12:15;;;;;;;26.92;20.38;;;;;;;;;;6069437;29;20172;-70
2021/04/11 02:15:18;;;;;;;24.25;18.10;;;;;;;;;;6069089;29;20103;-71
2021/04/11 02:18:19;;;;;;;24.05;18.95;;;;;;;;;;6065152;29;20067;-70
2021/04/11 02:21:21;;;;;;;24.08;18.60;;;;;;;;;;6084512;29;20082;-70
2021/04/11 02:24:22;;;;;;;22.77;17.98;;;;;;;;;;6068002;29;20132;-73
2021/04/11 02:27:24;;;;;;;23.02;18.42;;;;;;;;;;6065366;29;20127;-71
2021/04/11 02:30:27;;;;;;;22.55;18.42;;;;;;;;;;6064088;29;20128;-71
2021/04/11 02:33:28;;;;;;;25.38;18.80;;;;;;;;;;6069877;29;20486;-71
2021/04/11 02:36:36;;;;;;;21.75;17.88;;;;;;;;;;6066800;29;20571;-71
2021/04/11 02:39:39;;;;;;;21.02;17.70;;;;;;;;;;6070200;29;20136;-71
2021/04/11 02:42:41;;;;;;;22.38;18.30;;;;;;;;;;6074902;29;20144;-71
2021/04/11 02:45:44;;;;;;;25.85;19.33;;;;;;;;;;6071066;29;20781;-71
2021/04/11 02:48:47;;;;;;;23.08;18.42;;;;;;;;;;6068425;29;20120;-71
2021/04/11 02:51:49;;;;;;;25.33;19.42;;;;;;;;;;6070249;29;20067;-72
2021/04/11 02:54:50;;;;;;;25.05;19.02;;;;;;;;;;6072716;29;20131;-71
2021/04/11 02:57:56;;;;;;;28.10;19.48;;;;;;;;;;6073121;29;20127;-71
2021/04/11 03:00:59;;;;;;;23.27;19.15;;;;;;;;;;6068973;29;20452;-71
2021/04/11 03:04:01;;;;;;;23.00;18.40;;;;;;;;;;6071070;29;20725;-71
2021/04/11 03:07:05;;;;;;;21.63;16.73;;;;;;;;;;6070257;29;20116;-73
2021/04/11 03:10:10;;;;;;;20.40;17.17;;;;;;;;;;6071533;29;20044;-72
2021/04/11 03:13:13;;;;;;;22.98;17.30;;;;;;;;;;6071110;29;20056;-73
2021/04/11 03:16:14;;;;;;;21.27;16.45;;;;;;;;;;6070809;29;20525;-72
2021/04/11 03:19:18;;;;;;;21.70;15.90;;;;;;;;;;6071140;29;20077;-72
2021/04/11 03:22:20;;;;;;;21.98;15.40;;;;;;;;;;6073674;29;20064;-72
2021/04/11 03:25:21;;;;;;;18.92;14.68;;;;;;;;;;6072473;29;20161;-72
2021/04/11 03:28:28;;;;;;;18.80;15.18;;;;;;;;;;6070303;29;20688;-72
2021/04/11 03:31:33;;;;;;;17.67;14.25;;;;;;;;;;6068154;29;20159;-72
2021/04/11 03:34:34;;;;;;;15.88;13.32;;;;;;;;;;6076556;29;20161;-72
2021/04/11 03:37:36;;;;;;;18.75;13.10;;;;;;;;;;6068283;29;20121;-72
2021/04/11 03:40:39;;;;;;;15.95;12.60;;;;;;;;;;6059031;29;20405;-74
2021/04/11 03:43:43;;;;;;;15.25;12.18;;;;;;;;;;6060142;29;20085;-72
2021/04/11 03:46:48;;;;;;;16.52;12.20;;;;;;;;;;6061567;29;20087;-72
2021/04/11 03:49:53;;;;;;;15.90;11.35;;;;;;;;;;6064637;29;20303;-73
2021/04/11 03:52:57;;;;;;;14.93;11.68;;;;;;;;;;6062991;29;20555;-72
2021/04/11 03:55:58;;;;;;;;;;;;;;;;;;6058421;29;20708;-72
2021/04/11 03:59:02;;;;;;;13.38;11.05;;;;;;;;;;6064532;29;20026;-72
2021/04/11 04:02:05;;;;;;;13.98;11.23;;;;;;;;;;6060705;29;20041;-72
2021/04/11 04:05:09;;;;;;;13.20;11.27;;;;;;;;;;6065100;29;20099;-72
2021/04/11 04:08:10;;;;;;;13.25;10.68;;;;;;;;;;6063763;29;20554;-73
2021/04/11 04:11:18;;;;;;;12.23;9.75;;;;;;;;;;6062355;29;20073;-72
2021/04/11 04:14:27;;;;;;;12.63;10.23;;;;;;;;;;6057466;29;20502;-73
2021/04/11 04:17:33;;;;;;;13.80;10.63;;;;;;;;;;6058691;29;20502;-73
2021/04/11 04:20:42;;;;;;;13.68;9.80;;;;;;;;;;6062079;29;20181;-72
2021/04/11 04:23:48;;;;;;;11.52;8.75;;;;;;;;;;6061303;29;20083;-72
2021/04/11 04:26:51;;;;;;;12.40;9.30;;;;;;;;;;6060643;29;20394;-72
2021/04/11 04:30:06;;;;;;;12.63;9.52;;;;;;;;;;6060437;29;20136;-72
2021/04/11 04:33:26;;;;;;;10.82;8.73;;;;;;;;;;6057288;29;20163;-72
2021/04/11 04:36:39;;;;;;;10.40;8.20;;;;;;;;;;6061549;29;20080;-72
2021/04/11 04:39:49;;;;;;;10.80;8.27;;;;;;;;;;6063431;29;20694;-72
2021/04/11 04:42:52;;;;;;;8.02;7.22;;;;;;;;;;6059461;29;20144;-72
2021/04/11 04:46:04;;;;;;;11.52;7.55;;;;;;;;;;6061896;29;20052;-72
2021/04/11 04:49:12;;;;;;;7.97;6.80;;;;;;;;;;6062974;29;20104;-72
2021/04/11 04:52:17;;;;;;;6.85;5.80;;;;;;;;;;6061649;29;20132;-72
2021/04/11 04:55:22;;;;;;;9.43;6.85;;;;;;;;;;6062838;29;20714;-73
2021/04/11 04:58:26;;;;;;;7.20;6.20;;;;;;;;;;6063488;29;20605;-72
2021/04/11 05:01:34;;;;;;;8.75;6.80;;;;;;;;;;6062754;29;20131;-72
2021/04/11 05:04:37;;;;;;;8.50;6.32;;;;;;;;;;6062117;29;20131;-73
2021/04/11 05:07:43;;;;;;;10.65;6.18;;;;;;;;;;6069656;29;20139;-72
2021/04/11 05:10:48;;;;;;;7.80;6.40;;;;;;;;;;6072975;29;20650;-72
2021/04/11 05:13:52;;;;;;;9.18;6.60;;;;;;;;;;6075327;29;20063;-72
2021/04/11 05:16:58;;;;;;;9.57;6.45;;;;;;;;;;6056818;29;20131;-72
2021/04/11 05:20:01;;;;;;;10.30;5.88;;;;;;;;;;6057587;29;20232;-72
2021/04/11 05:23:12;;;;;;;8.02;6.07;;;;;;;;;;6052885;29;20041;-72
2021/04/11 05:26:16;;;;;;;7.07;5.53;;;;;;;;;;6066786;29;20143;-72
2021/04/11 05:29:22;;;;;;;7.40;5.97;;;;;;;;;;6066408;29;20131;-73
2021/04/11 05:32:24;;;;;;;9.98;5.75;;;;;;;;;;6059708;29;20053;-71
2021/04/11 05:35:25;;;;;;;7.13;5.55;;;;;;;;;;6054787;29;20145;-72
2021/04/11 05:38:34;;;;;;;5.43;4.70;;;;;;;;;;6063408;29;20056;-72
2021/04/11 05:41:39;;;;;;;7.65;5.35;;;;;;;;;;6067948;29;20064;-74
2021/04/11 05:44:42;;;;;;;6.65;5.15;;;;;;;;;;6068723;29;20139;-72
2021/04/11 05:47:59;;;;;;;6.43;5.00;;;;;;;;;;6072874;29;20076;-72
2021/04/11 05:51:03;;;;;;;6.65;5.82;;;;;;;;;;6061964;29;20144;-72
2021/04/11 05:54:07;;;;;;;6.05;5.10;;;;;;;;;;6082704;29;20535;-72
2021/04/11 05:57:13;;;;;;;7.88;5.53;;;;;;;;;;6072960;29;20488;-72
2021/04/11 06:00:17;;;;;;;9.45;5.80;;;;;;;;;;6061005;29;20113;-72
2021/04/11 06:03:22;;;;;;;7.80;6.15;;;;;;;;;;6070724;29;20111;-72
2021/04/11 06:06:27;;;;;;;7.50;5.50;;;;;;;;;;6075415;29;20954;-72
2021/04/11 06:09:34;;;;;;;8.18;5.80;;;;;;;;;;6074196;29;20525;-72
2021/04/11 06:12:40;;;;;;;7.32;5.45;;;;;;;;;;6067139;29;20173;-73
2021/04/11 06:15:44;;;;;;;8.40;6.28;;;;;;;;;;6056623;29;20150;-72
2021/04/11 06:18:47;;;;;;;8.82;5.38;;;;;;;;;;6062202;29;20133;-71
2021/04/11 06:21:56;;;;;;;6.57;5.40;;;;;;;;;;6060093;29;20135;-73
2021/04/11 06:24:59;;;;;;;5.68;4.93;;;;;;;;;;6062267;29;20116;-72
2021/04/11 06:28:06;;;;;;;5.70;4.77;;;;;;;;;;6060883;29;20143;-72
2021/04/11 06:31:11;;;;;;;8.73;4.90;;;;;;;;;;6075756;29;20628;-73
2021/04/11 06:34:17;;;;;;;7.78;5.38;;;;;;;;;;6072472;29;20064;-72
2021/04/11 06:37:20;;;;;;;6.63;4.80;;;;;;;;;;6070427;29;20132;-73
2021/04/11 06:40:36;;;;;;;6.80;5.07;;;;;;;;;;6068055;29;20073;-73
2021/04/11 06:43:55;;;;;;;8.52;4.70;;;;;;;;;;6068060;29;20132;-72
2021/04/11 06:47:17;;;;;;;5.03;4.30;;;;;;;;;;6060155;29;20135;-72
2021/04/11 06:50:34;;;;;;;5.38;4.30;;;;;;;;;;6063543;29;20124;-72
2021/04/11 06:54:03;;;;;;;5.07;4.57;;;;;;;;;;6061192;29;20052;-71
2021/04/11 06:57:32;;;;;;;6.38;4.70;;;;;;;;;;6050417;29;20044;-72
2021/04/11 07:00:44;;;;;;;7.85;5.03;;;;;;;;;;6066496;29;20141;-72
2021/04/11 07:04:34;;;;;;;5.97;4.90;;;;;;;;;;6069611;29;20456;-71
2021/04/11 07:08:18;;;;;;;4.88;3.97;;;;;;;;;;6070568;29;20128;-71
2021/04/11 07:11:56;;;;;;;5.97;4.68;;;;;;;;;;6067062;29;20069;-70
2021/04/11 07:15:16;;;;;;;4.95;4.25;;;;;;;;;;6056708;29;20079;-71
2021/04/11 07:18:50;;;;;;;5.30;4.80;;;;;;;;;;6072891;29;20139;-71
2021/04/11 07:22:24;;;;;;;6.18;5.00;;;;;;;;;;6064549;29;20137;-72
2021/04/11 07:25:34;;;;;;;4.60;4.13;;;;;;;;;;6059077;29;20045;-71
2021/04/11 07:28:40;;;;;;;4.90;3.50;;;;;;;;;;6057790;29;20526;-69
2021/04/11 07:31:53;;;;;;;5.70;3.70;;;;;;;;;;6061254;29;20464;-72
2021/04/11 07:35:03;;;;;;;5.18;3.83;;;;;;;;;;6067594;29;21119;-72
2021/04/11 07:38:11;;;;;;;6.28;3.47;;;;;;;;;;6071237;29;20105;-71
2021/04/11 07:41:32;;;;;;;4.88;3.60;;;;;;;;;;6067254;29;20053;-74
2021/04/11 07:45:08;;;;;;;3.30;2.92;;;;;;;;;;6069242;29;20532;-72
2021/04/11 07:48:35;;;;;;;4.00;2.90;;;;;;;;;;6059818;29;20207;-70
2021/04/11 07:51:47;;;;;;;5.15;3.10;;;;;;;;;;6067669;29;20140;-73
2021/04/11 07:54:56;;;;;;;4.45;3.53;;;;;;;;;;6065223;29;20492;-72
2021/04/11 07:58:14;;;;;;;6.90;5.35;;;;;;;;;;6071690;29;20172;-73
2021/04/11 08:01:29;;;;;;;4.38;3.63;;;;;;;;;;6067365;29;20135;-73
2021/04/11 08:04:38;;;;;;;5.03;3.50;;;;;;;;;;6066660;29;20060;-73
2021/04/11 08:07:55;;;;;;;5.43;3.92;;;;;;;;;;6068331;29;20088;-72
2021/04/11 08:11:26;;;;;;;4.68;3.30;;;;;;;;;;6070637;29;20136;-73
2021/04/11 08:14:41;;;;;;;4.97;3.38;;;;;;;;;;6046175;29;20177;-72
2021/04/11 08:18:00;;;;;;;6.53;3.50;;;;;;;;;;6064776;29;20399;-75
2021/04/11 08:21:09;;;;;;;3.55;3.03;;;;;;;;;;6062240;29;20045;-74
2021/04/11 08:24:44;;;;;;;3.85;3.38;;;;;;;;;;6066254;29;20131;-72
2021/04/11 08:28:25;;;;;;;3.22;2.92;;;;;;;;;;6053417;29;20147;-72
2021/04/11 08:31:53;;;;;;;3.70;2.80;;;;;;;;;;6066057;29;20135;-72
2021/04/11 08:35:17;;;;;;;3.55;2.88;;;;;;;;;;6067839;29;20147;-71
2021/04/11 08:38:32;;;;;;;4.65;3.03;;;;;;;;;;6063328;29;20580;-72
2021/04/11 08:42:06;;;;;;;4.32;2.70;;;;;;;;;;6069984;29;20080;-71
2021/04/11 08:45:16;;;;;;;2.75;2.47;;;;;;;;;;6065520;29;20136;-72
2021/04/11 08:48:41;;;;;;;2.83;2.28;;;;;;;;;;6070801;29;20153;-72
2021/04/11 08:51:50;;;;;;;3.17;2.40;;;;;;;;;;6077942;29;20060;-71
2021/04/11 08:54:59;;;;;;;4.22;2.08;;;;;;;;;;6083474;29;20728;-72
2021/04/11 08:58:07;;;;;;;3.65;2.50;;;;;;;;;;6077221;29;20128;-72
2021/04/11 09:01:21;;;;;;;3.58;2.75;;;;;;;;;;6073376;29;20107;-72
2021/04/11 09:04:27;;;;;;;3.05;2.70;;;;;;;;;;6074935;29;20123;-72
2021/04/11 09:07:44;;;;;;;4.93;3.17;;;;;;;;;;6077266;29;20059;-76
2021/04/11 09:10:55;;;;;;;3.42;2.60;;;;;;;;;;6082188;29;20131;-73
2021/04/11 09:14:09;;;;;;;4.68;2.75;;;;;;;;;;6076535;29;20064;-72
2021/04/11 09:17:25;;;;;;;2.85;2.20;;;;;;;;;;6070555;29;20076;-72
2021/04/11 09:20:33;;;;;;;5.28;2.50;;;;;;;;;;6074651;29;20092;-71
2021/04/11 09:23:43;;;;;;;2.78;1.80;;;;;;;;;;6081404;29;20072;-71
2021/04/11 09:27:12;;;;;;;3.42;2.03;;;;;;;;;;6071260;29;20128;-72
2021/04/11 09:30:26;;;;;;;2.42;1.90;;;;;;;;;;6069391;29;20663;-71
2021/04/11 09:33:41;;;;;;;3.25;1.70;;;;;;;;;;6069797;29;20184;-73
2021/04/11 09:36:46;;;;;;;4.22;1.90;;;;;;;;;;6076960;29;20746;-73
2021/04/11 09:39:59;;;;;;;2.22;1.60;;;;;;;;;;6082893;29;20108;-73
2021/04/11 09:43:34;;;;;;;2.83;1.63;;;;;;;;;;6076202;29;20061;-74
2021/04/11 09:46:53;;;;;;;2.90;1.60;;;;;;;;;;6044992;29;20127;-72
2021/04/11 09:50:10;;;;;;;2.30;1.80;;;;;;;;;;6074565;29;20136;-75
2021/04/11 09:53:44;;;;;;;3.00;1.60;;;;;;;;;;6080083;29;20045;-73
2021/04/11 09:57:05;;;;;;;1.70;1.35;;;;;;;;;;6074624;29;20136;-74
2021/04/11 10:00:17;;;;;;;3.00;1.90;;;;;;;;;;6077828;29;20100;-74
2021/04/11 10:03:35;;;;;;;2.55;1.42;;;;;;;;;;6088801;29;20077;-75
2021/04/11 10:07:01;;;;;;;2.20;1.63;;;;;;;;;;6067678;29;20076;-75
2021/04/11 10:10:12;;;;;;;3.15;1.92;;;;;;;;;;6074169;29;20095;-73
2021/04/11 10:13:30;;;;;;;2.78;2.00;;;;;;;;;;6074030;29;20136;-74
2021/04/11 10:16:35;;;;;;;2.70;2.20;;;;;;;;;;6067238;29;20132;-73
2021/04/11 10:19:44;;;;;;;3.50;2.55;;;;;;;;;;6066285;29;20065;-73
2021/04/11 10:22:47;;;;;;;3.33;2.58;;;;;;;;;;6068862;29;20488;-73
2021/04/11 10:25:52;;;;;;;3.58;2.67;;;;;;;;;;6069396;29;20124;-72
2021/04/11 10:28:59;;;;;;;4.45;2.75;;;;;;;;;;6071410;29;20056;-73
2021/04/11 10:32:06;;;;;;;5.57;2.97;;;;;;;;;;6069839;29;20132;-72
2021/04/11 10:35:13;;;;;;;3.60;2.30;;;;;;;;;;6072511;29;20471;-72
2021/04/11 10:38:19;;;;;;;2.03;1.60;;;;;;;;;;6077518;29;20123;-71
2021/04/11 10:41:42;;;;;;;2.03;1.80;;;;;;;;;;6077186;29;20060;-73
2021/04/11 10:44:56;;;;;;;1.58;1.38;;;;;;;;;;6069990;29;20483;-74
2021/04/11 10:48:21;;;;;;;4.60;1.40;;;;;;;;;;6079874;29;20072;-73
2021/04/11 10:51:38;;;;;;;2.65;1.80;;;;;;;;;;6075350;29;20447;-73
2021/04/11 10:54:50;;;;;;;2.38;1.42;;;;;;;;;;6072570;29;20491;-74
2021/04/11 10:58:12;;;;;;;1.90;1.38;;;;;;;;;;6076689;29;20084;-74
2021/04/11 11:01:41;;;;;;;2.15;1.70;;;;;;;;;;6070184;29;20503;-74
2021/04/11 11:05:01;;;;;;;3.38;1.90;;;;;;;;;;6042596;29;20111;-73
2021/04/11 11:08:21;;;;;;;2.22;1.70;;;;;;;;;;6075167;29;20456;-78
2021/04/11 11:11:48;;;;;;;2.67;1.80;;;;;;;;;;6076076;29;20067;-73
2021/04/11 11:15:07;;;;;;;3.58;1.75;;;;;;;;;;6067548;29;20131;-72
2021/04/11 11:18:39;;;;;;;2.38;1.40;;;;;;;;;;6070384;29;20143;-72
2021/04/11 11:21:50;;;;;;;2.05;1.30;;;;;;;;;;6068578;29;20131;-72
2021/04/11 11:25:20;;;;;;;1.70;1.10;;;;;;;;;;6072044;29;20056;-72
2021/04/11 11:28:51;;;;;;;2.63;1.20;;;;;;;;;;6055224;29;20518;-72
2021/04/11 11:31:58;;;;;;;1.60;1.10;;;;;;;;;;6065711;29;20739;-74
2021/04/11 11:35:03;;;;;;;3.17;1.77;;;;;;;;;;6063524;29;20068;-74
2021/04/11 11:38:07;;;;;;;2.25;1.38;;;;;;;;;;6073353;29;20128;-71
2021/04/11 11:41:10;;;;;;;;;;;;;;;;;;6071088;29;20647;-73
2021/04/11 11:44:15;;;;;;;2.55;1.90;;;;;;;;;;6071444;29;20005;-74
2021/04/11 11:47:24;;;;;;;3.15;1.63;;;;;;;;;;6074276;29;20044;-73
2021/04/11 11:50:29;;;;;;;2.22;1.70;;;;;;;;;;6062775;29;20084;-75
2021/04/11 11:53:33;;;;;;;2.97;1.85;;;;;;;;;;6071198;29;20461;-73
2021/04/11 11:56:37;;;;;;;3.40;2.25;;;;;;;;;;6068080;29;20139;-75
2021/04/11 11:59:42;;;;;;;2.70;2.00;;;;;;;;;;6074812;29;20070;-76
2021/04/11 12:03:11;;;;;;;2.90;1.90;;;;;;;;;;6065942;29;20064;-76
2021/04/11 12:06:18;;;;;;;3.42;2.10;;;;;;;;;;6074731;29;20056;-75
2021/04/11 12:09:23;;;;;;;6.10;2.22;;;;;;;;;;6076595;29;20052;-77
2021/04/11 12:12:27;;;;;;;4.35;2.50;;;;;;;;;;6078416;29;20056;-75
2021/04/11 12:15:32;;;;;;;3.97;2.47;;;;;;;;;;6079310;29;20491;-76
2021/04/11 12:18:36;;;;;;;3.25;2.28;;;;;;;;;;6071343;29;20458;-77
2021/04/11 12:21:43;;;;;;;2.70;2.00;;;;;;;;;;6076157;29;20068;-76
2021/04/11 12:24:49;;;;;;;3.30;2.33;;;;;;;;;;6070211;29;20087;-76
2021/04/11 12:27:51;;;;;;;3.17;2.03;;;;;;;;;;6073240;29;20049;-76
2021/04/11 12:30:53;;;;;;;2.88;2.20;;;;;;;;;;6067197;29;20091;-76
2021/04/11 12:34:00;;;;;;;2.50;1.85;;;;;;;;;;6082317;29;20211;-77
2021/04/11 12:37:13;;;;;;;2.95;2.17;;;;;;;;;;6076717;29;20048;-76
2021/04/11 12:40:25;;;;;;;4.95;2.58;;;;;;;;;;6067014;29;20104;-76
2021/04/11 12:47:02;;;;;;;2.60;2.05;;;;;;;;;;6059785;29;20056;-75
2021/04/11 12:57:05;;;;;;;2.80;1.77;;;;;;;;;;6061964;29;20048;-75
2021/04/11 13:03:34;;;;;;;4.25;2.10;;;;;;;;;;6087183;29;20157;-75
2021/04/11 13:06:48;;;;;;;2.33;1.65;;;;;;;;;;6082406;29;20411;-76
2021/04/11 13:09:56;;;;;;;2.47;1.42;;;;;;;;;;6085736;29;20052;-75
2021/04/11 13:13:23;;;;;;;2.33;1.38;;;;;;;;;;6083347;29;20060;-75
2021/04/11 13:16:27;;;;;;;2.88;1.83;;;;;;;;;;6078713;29;20416;-79
2021/04/11 13:19:36;;;;;;;3.33;1.60;;;;;;;;;;6079448;29;20139;-76
2021/04/11 13:22:44;;;;;;;1.67;1.30;;;;;;;;;;6083023;29;20049;-75
2021/04/11 13:25:52;;;;;;;3.15;1.70;;;;;;;;;;6086368;29;20076;-75
2021/04/11 13:29:04;;;;;;;2.50;1.55;;;;;;;;;;6065375;29;20065;-75
2021/04/11 13:32:21;;;;;;;1.90;1.42;;;;;;;;;;6079907;29;20061;-76
2021/04/11 13:35:31;;;;;;;1.55;1.38;;;;;;;;;;6081668;29;20408;-75
2021/04/11 13:38:34;;;;;;;1.55;1.20;;;;;;;;;;6071543;29;20056;-75
2021/04/11 13:41:55;;;;;;;1.83;1.15;;;;;;;;;;6071295;29;20057;-75
2021/04/11 13:45:14;;;;;;;2.15;1.35;;;;;;;;;;6081238;29;20040;-75
2021/04/11 13:51:52;;;;;;;1.83;1.15;;;;;;;;;;6082859;29;20144;-75
2021/04/11 13:55:02;;;;;;;1.30;1.00;;;;;;;;;;6072001;29;20068;-73
2021/04/11 13:58:07;;;;;;;3.58;1.30;;;;;;;;;;6083947;29;20415;-74
2021/04/11 14:01:10;;;;;;;1.55;1.10;;;;;;;;;;6082152;29;20140;-75
2021/04/11 14:04:18;;;;;;;1.85;1.25;;;;;;;;;;6080367;29;20053;-75
2021/04/11 14:07:22;;;;;;;1.90;1.00;;;;;;;;;;6081288;29;20127;-74
2021/04/11 14:10:28;;;;;;;1.00;0.80;;;;;;;;;;6083488;29;20083;-72
2021/04/11 14:13:32;;;;;;;1949.55;153.65;;;;;;;;;;6079899;29;20123;-72
2021/04/11 14:16:40;;;;;;;28.55;3.05;;;;;;;;;;6073421;29;20496;-72
2021/04/11 14:19:47;;;;;;;3.00;1.05;;;;;;;;;;6078700;29;20260;-72
2021/04/11 14:22:55;;;;;;;1.67;1.10;;;;;;;;;;6071910;29;20492;-71
2021/04/11 14:25:59;;;;;;;1.45;1.10;;;;;;;;;;6071689;29;20132;-71
2021/04/11 14:29:06;;;;;;;1.25;0.93;;;;;;;;;;6072904;29;20143;-74
2021/04/11 14:32:15;;;;;;;1.50;1.08;;;;;;;;;;6066742;29;20075;-75
2021/04/11 14:35:20;;;;;;;1.58;1.02;;;;;;;;;;6078891;29;20153;-73
2021/04/11 14:38:26;;;;;;;2.10;1.10;;;;;;;;;;6066272;29;20058;-74
2021/04/11 14:41:36;;;;;;;3.45;1.50;;;;;;;;;;6076548;29;20104;-76
2021/04/11 14:44:41;;;;;;;2.95;1.20;;;;;;;;;;6073523;29;20083;-75
2021/04/11 14:47:45;;;;;;;1.52;1.15;;;;;;;;;;6078503;29;20072;-76
2021/04/11 14:50:46;;;;;;;2.30;1.20;;;;;;;;;;6078606;29;20067;-78
2021/04/11 14:53:49;;;;;;;2.50;1.45;;;;;;;;;;6079901;29;20427;-74
2021/04/11 14:56:56;;;;;;;1.83;1.33;;;;;;;;;;6078692;29;20110;-77
2021/04/11 15:00:07;;;;;;;1.60;1.13;;;;;;;;;;6074978;29;20060;-77
2021/04/11 15:03:23;;;;;;;1.30;1.10;;;;;;;;;;6070592;29;20060;-72
2021/04/11 15:06:35;;;;;;;1.35;1.08;;;;;;;;;;6067527;29;20094;-74
2021/04/11 15:09:46;;;;;;;3.30;1.50;;;;;;;;;;6070997;29;20063;-74
2021/04/11 15:12:59;;;;;;;2.20;1.40;;;;;;;;;;6065532;29;20090;-74
2021/04/11 15:16:06;;;;;;;2.20;1.30;;;;;;;;;;6057931;29;20100;-76
2021/04/11 15:19:13;;;;;;;2.15;1.20;;;;;;;;;;6070771;29;20080;-73
2021/04/11 15:22:19;;;;;;;2.53;1.48;;;;;;;;;;6063063;29;20079;-73
2021/04/11 15:25:22;;;;;;;2.28;1.35;;;;;;;;;;6070000;29;20099;-73
2021/04/11 15:28:31;;;;;;;1.80;1.33;;;;;;;;;;6067860;29;20048;-75
2021/04/11 15:31:40;;;;;;;1.48;1.27;;;;;;;;;;6066876;29;20082;-74
2021/04/11 15:34:51;;;;;;;4.45;1.70;;;;;;;;;;6068279;29;20084;-75
2021/04/11 15:37:55;;;;;;;3.38;1.40;;;;;;;;;;6069738;29;20052;-73
2021/04/11 15:41:02;;;;;;;3.42;1.40;;;;;;;;;;6067243;29;20055;-73
2021/04/11 15:44:10;;;;;;;2.97;1.83;;;;;;;;;;6061853;29;20044;-73
2021/04/11 15:47:24;;;;;;;3.88;1.45;;;;;;;;;;6059968;29;20435;-74
2021/04/11 15:50:39;;;;;;;2.25;1.50;;;;;;;;;;6069560;29;20056;-72
2021/04/11 15:54:02;;;;;;;1.63;1.20;;;;;;;;;;6065679;29;20132;-73
2021/04/11 15:57:09;;;;;;;3.70;2.00;;;;;;;;;;6073434;29;20041;-72
2021/04/11 16:00:16;;;;;;;2.80;1.70;;;;;;;;;;6073134;29;20567;-72
2021/04/11 16:03:25;;;;;;;3.65;1.88;;;;;;;;;;6071398;29;20819;-72
2021/04/11 16:06:29;;;;;;;2.95;1.75;;;;;;;;;;6063936;29;20526;-72
2021/04/11 16:09:32;;;;;;;1.80;1.48;;;;;;;;;;6071961;29;20180;-73
2021/04/11 16:12:41;;;;;;;2.15;1.80;;;;;;;;;;6072110;29;20123;-74
2021/04/11 16:15:49;;;;;;;1.92;1.52;;;;;;;;;;6060644;29;20445;-72
2021/04/11 16:19:10;;;;;;;2.15;1.60;;;;;;;;;;6061235;29;20069;-73
2021/04/11 16:22:21;;;;;;;2.35;1.85;;;;;;;;;;6062725;29;20075;-73
2021/04/11 16:25:28;;;;;;;2.72;1.70;;;;;;;;;;6065499;29;20093;-74
2021/04/11 16:28:43;;;;;;;2.95;2.00;;;;;;;;;;6067751;29;20056;-74
2021/04/11 16:31:55;;;;;;;2.03;1.70;;;;;;;;;;6062852;29;20706;-77
2021/04/11 16:35:07;;;;;;;2.33;1.67;;;;;;;;;;6061696;29;20505;-73
2021/04/11 16:38:16;;;;;;;3.13;2.00;;;;;;;;;;6064825;29;20056;-74
2021/04/11 16:41:26;;;;;;;2.95;2.00;;;;;;;;;;6063654;29;20095;-74
2021/04/11 16:44:37;;;;;;;3.97;2.10;;;;;;;;;;6065653;29;20049;-74
2021/04/11 16:47:44;;;;;;;3.05;2.40;;;;;;;;;;6072720;29;20079;-74
2021/04/11 16:50:49;;;;;;;3.20;1.98;;;;;;;;;;6078695;29;20188;-73
2021/04/11 16:53:55;;;;;;;5.10;2.38;;;;;;;;;;6065774;29;20072;-76
2021/04/11 16:57:07;;;;;;;3.97;2.35;;;;;;;;;;6066229;29;20782;-73
2021/04/11 17:00:16;;;;;;;2.63;2.00;;;;;;;;;;6057748;29;20076;-74
2021/04/11 17:03:22;;;;;;;2.40;2.00;;;;;;;;;;6065203;29;20132;-76
2021/04/11 17:06:26;;;;;;;2.25;1.92;;;;;;;;;;6063435;29;20143;-78
2021/04/11 17:09:36;;;;;;;3.13;2.20;;;;;;;;;;6068478;29;20139;-73
2021/04/11 17:12:41;;;;;;;3.15;2.30;;;;;;;;;;6075810;29;20444;-73
2021/04/11 17:15:55;;;;;;;3.55;2.33;;;;;;;;;;6069180;29;20048;-74
2021/04/11 17:19:07;;;;;;;2.10;1.90;;;;;;;;;;6080532;29;20553;-76
2021/04/11 17:22:21;;;;;;;3.03;2.00;;;;;;;;;;6068213;29;20165;-73
2021/04/11 17:25:29;;;;;;;3.05;2.30;;;;;;;;;;6080227;29;20123;-73
2021/04/11 17:28:35;;;;;;;3.05;2.10;;;;;;;;;;6066209;29;20092;-73
2021/04/11 17:31:41;;;;;;;2.83;1.77;;;;;;;;;;6080149;29;20080;-73
2021/04/11 17:34:50;;;;;;;3.35;2.17;;;;;;;;;;6070017;29;20655;-72
2021/04/11 17:38:00;;;;;;;4.32;2.30;;;;;;;;;;6071761;29;20151;-75
2021/04/11 17:41:14;;;;;;;3.13;1.75;;;;;;;;;;6069710;29;20077;-73
2021/04/11 17:44:42;;;;;;;2.90;2.08;;;;;;;;;;6067371;29;20124;-74
2021/04/11 17:48:04;;;;;;;3.85;2.00;;;;;;;;;;6070647;29;20076;-73
2021/04/11 17:51:23;;;;;;;3.67;2.10;;;;;;;;;;6072541;29;20436;-73
2021/04/11 17:54:36;;;;;;;4.07;2.20;;;;;;;;;;6069443;29;20068;-71
2021/04/11 17:57:44;;;;;;;3.08;1.98;;;;;;;;;;6068973;29;20123;-72
2021/04/11 18:00:48;;;;;;;3.80;2.03;;;;;;;;;;6075484;29;20491;-74
2021/04/11 18:03:50;;;;;;;;;;;;;;;;;;6072259;29;20052;-73
2021/04/11 18:06:59;;;;;;;5.47;2.50;;;;;;;;;;6068597;29;20037;-73
2021/04/11 18:10:08;;;;;;;4.47;2.60;;;;;;;;;;6073091;29;20057;-73
2021/04/11 18:13:18;;;;;;;4.00;2.78;;;;;;;;;;6067780;29;20604;-72
2021/04/11 18:16:22;;;;;;;4.97;3.60;;;;;;;;;;6071958;29;20131;-73
2021/04/11 18:19:30;;;;;;;5.25;2.80;;;;;;;;;;6073731;29;20048;-73
2021/04/11 18:22:36;;;;;;;5.25;3.22;;;;;;;;;;6075273;29;20444;-73
2021/04/11 18:25:53;;;;;;;3.63;3.15;;;;;;;;;;6064768;29;20136;-73
2021/04/11 18:29:03;;;;;;;4.47;2.97;;;;;;;;;;6071310;29;20139;-76
2021/04/11 18:32:10;;;;;;;4.63;3.20;;;;;;;;;;6072985;29;20109;-74
2021/04/11 18:35:22;;;;;;;4.97;3.28;;;;;;;;;;6076894;29;20053;-74
2021/04/11 18:38:26;;;;;;;6.70;2.85;;;;;;;;;;6075264;29;20059;-76
2021/04/11 18:41:36;;;;;;;5.25;3.00;;;;;;;;;;6078539;29;20057;-77
2021/04/11 18:44:41;;;;;;;6.60;3.08;;;;;;;;;;6069400;29;20048;-77
2021/04/11 18:47:48;;;;;;;4.78;2.45;;;;;;;;;;6075541;29;20080;-74
2021/04/11 18:50:57;;;;;;;7.28;2.70;;;;;;;;;;6072758;29;20045;-75
2021/04/11 18:54:10;;;;;;;4.18;2.70;;;;;;;;;;6064373;29;20108;-78
2021/04/11 18:57:17;;;;;;;7.85;3.00;;;;;;;;;;6072681;29;20056;-74
2021/04/11 19:00:28;;;;;;;5.47;2.85;;;;;;;;;;6075335;29;20072;-74
2021/04/11 19:03:38;;;;;;;6.80;2.30;;;;;;;;;;6074404;29;20566;-75
2021/04/11 19:06:43;;;;;;;4.20;2.22;;;;;;;;;;6073337;29;20499;-76